SVJC

Josefa Camejo International Airport

Paraguaná, Venezuela
TAF SVJC 221000Z 2212/2312 08010KT 9999 FEW013 TX33/19Z TN23/08Z FM221610 09015KT 9999 FEW013 SCT090 BECMG 2219/2323 10015G20KT SCT010
Issued Valid From Valid To
Jan-22 @ 10:00 UTC
(7 hours ago)
Jan-22 @ 12:00 UTC
(5 hours ago)
Jan-23 @ 12:00 UTC
(in 19 hours)
Expired Click to View Jan-22 @ 12:00 to Jan-22 @ 16:10
TAF SVJC 221000Z 2212/2312 08010KT 9999 FEW013 TX33/19Z TN23/08Z
Wind Visibility Clouds
80° at 10 knots 10,000+ meters
  • Few at 1,300' AGL
From Jan-22 @ 16:10 to Jan-22 @ 19:00
FM221610 09015KT 9999 FEW013 SCT090
Wind Visibility Clouds
90° at 15 knots 10,000+ meters
  • Few at 1,300' AGL
  • Scattered at 9,000' AGL
Becoming Jan-22 @ 19:00 to Jan-23 @ 12:00
BECMG 2219/2323 10015G20KT SCT010
Wind Visibility Clouds
100° at 15 knots
 Gusting to 20 knots
10,000+ meters
  • Scattered at 1,000' AGL
TAF SVJC 221000Z 2212/2312 08010KT 9999 FEW013 TX33/19Z TN23/08Z FM221610 09015KT 9999 FEW013 SCT090 BECMG 2219/2323 10015G20KT SCT010
Issued Jan-22 @ 10:00 UTC
(7 hours ago)
Valid From Jan-22 @ 12:00 UTC
(5 hours ago)
Valid To Jan-23 @ 12:00 UTC
(in 19 hours)
Jan-22 @ 12:00 - Jan-22 @ 16:10
Wind Visibility
80° at 10 knots 10,000+ meters
Clouds
  • Few at 1,300' AGL
From Jan-22 @ 16:10 - Jan-22 @ 19:00
Wind Visibility
90° at 15 knots 10,000+ meters
Clouds
  • Few at 1,300' AGL
  • Scattered at 9,000' AGL
Becoming Jan-22 @ 19:00 - Jan-23 @ 12:00
Wind Visibility
100° at 15 knots
 Gusting to 20 knots
10,000+ meters
Clouds
  • Scattered at 1,000' AGL